Armstrong Station, Canada
Current Conditions -  °F | °C
As of 3:00 PM on Monday 24 Nov 2014 (Local Time) from CYPL Reporting Station
Light Snow Light Snow  
Wind Chill: -2°   Ceiling: 8000
Heat Index: 10°   Visibility: 10mi
Dew Point:   Wind: 9mph
Humidity: 79%   Direction: 360°N
Pressure: 29.6"   Gusts: NA
Location:  50.3°N, 89.03°W
Report Text: CYPL 242000Z 36008KT 320V060 10SM -SN DRSN SCT015 BKN080 M12/M15 A2960 RMK SC4AC3 SLP056
Loading
Personal Weather Stations






























Interactive Weather Map New forecast layout! Learn more

10-Day Weather Forecast

Advertisements
Track Severe Weather on mobile